Time;durP1;ratioP1;P1;durP2;ratioP2;P2;SDS_P1;SDS_P2;PMS_P1;PMS_P2;Temp;Humidity;BMP_temperature;BMP_pressure;BME280_temperature;BME280_humidity;BME280_pressure;Samples;Min_cycle;Max_cycle;Signal;HPM_P1;HPM_P2
2023/08/26 00:01:47;;;;;;;4.40;3.73;;;19.70;99.90;;;;;;4876827;29;20471;-66
2023/08/26 00:04:13;;;;;;;4.97;4.57;;;19.70;99.90;;;;;;4877018;29;20468;-66
2023/08/26 00:06:40;;;;;;;4.50;4.10;;;19.60;99.90;;;;;;4876879;29;20974;-66
2023/08/26 00:09:07;;;;;;;4.10;3.60;;;19.60;99.90;;;;;;4876548;29;20495;-66
2023/08/26 00:11:35;;;;;;;4.10;3.70;;;19.60;99.90;;;;;;4876772;29;20469;-66
2023/08/26 00:14:02;;;;;;;4.97;4.10;;;19.60;99.90;;;;;;4876738;29;20474;-66
2023/08/26 00:16:28;;;;;;;4.33;3.93;;;19.60;99.90;;;;;;4876788;29;20467;-66
2023/08/26 00:18:55;;;;;;;5.60;4.93;;;19.60;99.90;;;;;;4876465;29;20986;-66
2023/08/26 00:21:22;;;;;;;4.37;3.90;;;19.60;99.90;;;;;;4876618;29;20523;-66
2023/08/26 00:23:49;;;;;;;4.43;4.03;;;19.60;99.90;;;;;;4876726;29;20477;-66
2023/08/26 00:26:17;;;;;;;4.17;3.43;;;19.50;99.90;;;;;;4876538;29;20844;-66
2023/08/26 00:28:46;;;;;;;5.33;4.30;;;19.50;99.90;;;;;;4876417;29;20501;-66
2023/08/26 00:31:13;;;;;;;4.47;3.93;;;19.50;99.90;;;;;;4876436;29;20478;-66
2023/08/26 00:33:39;;;;;;;5.70;4.10;;;19.50;99.90;;;;;;4876604;29;20470;-66
2023/08/26 00:36:06;;;;;;;4.83;4.20;;;19.50;99.90;;;;;;4876695;29;20475;-66
2023/08/26 00:38:33;;;;;;;3.80;3.50;;;19.50;99.90;;;;;;4876369;29;20862;-66
2023/08/26 00:40:59;;;;;;;3.60;3.20;;;19.50;99.90;;;;;;4875755;29;20969;-66
2023/08/26 00:43:27;;;;;;;3.60;3.23;;;19.50;99.90;;;;;;4876594;29;20471;-66
2023/08/26 00:45:55;;;;;;;6.93;3.30;;;19.40;99.90;;;;;;4876668;29;20478;-66
2023/08/26 00:48:22;;;;;;;3.93;3.53;;;19.50;99.90;;;;;;4876249;29;21023;-66
2023/08/26 00:50:51;;;;;;;5.50;3.13;;;19.50;99.90;;;;;;4876232;29;20474;-66
2023/08/26 00:53:18;;;;;;;4.37;3.97;;;19.50;99.90;;;;;;4876280;29;20475;-66
2023/08/26 00:55:45;;;;;;;4.17;3.70;;;19.50;99.90;;;;;;4876584;29;20471;-66
2023/08/26 00:58:13;;;;;;;5.20;3.10;;;19.40;99.90;;;;;;4875979;29;20472;-66
2023/08/26 01:00:40;;;;;;;4.17;3.70;;;19.40;99.90;;;;;;4876187;29;20474;-66
2023/08/26 01:03:09;;;;;;;4.20;3.10;;;19.40;99.90;;;;;;4876291;29;20462;-66
2023/08/26 01:05:35;;;;;;;3.10;2.60;;;19.30;99.90;;;;;;4876193;29;20471;-66
2023/08/26 01:08:04;;;;;;;3.10;2.40;;;19.30;99.90;;;;;;4876032;29;20496;-66
2023/08/26 01:10:37;;;;;;;3.40;2.50;;;19.20;99.90;;;;;;4876248;29;20820;-66
2023/08/26 01:13:09;;;;;;;2.40;2.20;;;19.20;99.90;;;;;;4879881;29;21192;-66
2023/08/26 01:15:40;;;;;;;4.53;2.20;;;19.20;99.90;;;;;;4880006;29;20470;-66
2023/08/26 01:18:10;;;;;;;7.20;2.83;;;19.20;99.90;;;;;;4879753;29;20465;-66
2023/08/26 01:20:38;;;;;;;3.10;2.80;;;19.20;99.90;;;;;;4879560;29;21014;-66
2023/08/26 01:23:08;;;;;;;4.17;2.90;;;19.10;99.90;;;;;;4879804;29;20470;-66
2023/08/26 01:25:36;;;;;;;2.83;2.40;;;19.10;99.90;;;;;;4879836;29;20473;-66
2023/08/26 01:28:03;;;;;;;3.13;2.40;;;19.10;99.90;;;;;;4879485;29;20501;-66
2023/08/26 01:30:29;;;;;;;2.93;2.40;;;19.10;99.90;;;;;;4879772;29;20482;-66
2023/08/26 01:33:03;;;;;;;3.50;2.40;;;19.10;99.90;;;;;;4880015;29;20477;-66
2023/08/26 01:35:35;;;;;;;4.40;3.30;;;19.10;99.90;;;;;;4879759;29;20469;-66
2023/08/26 01:38:03;;;;;;;2.43;2.20;;;19.00;99.90;;;;;;4879427;29;20490;-66
2023/08/26 01:40:30;;;;;;;3.23;2.73;;;19.10;99.90;;;;;;4878728;29;20472;-66
2023/08/26 01:42:59;;;;;;;2.37;2.17;;;19.10;99.90;;;;;;4879404;29;20462;-66
2023/08/26 01:45:26;;;;;;;4.20;2.57;;;19.10;99.90;;;;;;4864672;29;21076;-66
2023/08/26 01:47:53;;;;;;;3.00;2.53;;;19.10;99.90;;;;;;4879278;29;20534;-66
2023/08/26 01:50:19;;;;;;;2.50;2.10;;;19.10;99.90;;;;;;4879165;29;20480;-66
2023/08/26 01:52:46;;;;;;;3.10;2.80;;;19.10;99.90;;;;;;4879293;29;20473;-66
2023/08/26 01:55:13;;;;;;;2.47;2.27;;;19.10;99.90;;;;;;4879127;29;20840;-66
2023/08/26 01:57:40;;;;;;;2.43;2.20;;;19.20;99.90;;;;;;4879117;29;20474;-66
2023/08/26 02:00:09;;;;;;;2.30;2.10;;;19.20;99.90;;;;;;4879014;29;21003;-66
2023/08/26 02:02:36;;;;;;;2.43;2.23;;;19.20;99.90;;;;;;4879089;29;20954;-66
2023/08/26 02:05:03;;;;;;;3.20;2.60;;;19.20;99.90;;;;;;4878865;29;20845;-66
2023/08/26 02:07:29;;;;;;;3.13;2.10;;;19.20;99.90;;;;;;4878958;29;21000;-66
2023/08/26 02:09:56;;;;;;;2.00;1.80;;;19.20;99.90;;;;;;4878862;29;20911;-66
2023/08/26 02:12:23;;;;;;;2.70;2.50;;;19.20;99.90;;;;;;4878673;29;20474;-66
2023/08/26 02:14:49;;;;;;;3.43;2.57;;;19.20;99.90;;;;;;4878925;29;20559;-66
2023/08/26 02:17:17;;;;;;;5.20;2.13;;;19.10;99.90;;;;;;4878707;29;20957;-66
2023/08/26 02:19:44;;;;;;;2.90;2.60;;;19.10;99.90;;;;;;4878944;29;20482;-66
2023/08/26 02:22:11;;;;;;;3.07;2.07;;;19.10;99.90;;;;;;4877992;29;20478;-66
2023/08/26 02:24:37;;;;;;;2.30;2.10;;;19.10;99.90;;;;;;4878653;29;20471;-66
2023/08/26 02:27:05;;;;;;;2.60;2.40;;;19.10;99.90;;;;;;4878440;29;20950;-66
2023/08/26 02:29:31;;;;;;;2.70;2.50;;;19.10;99.90;;;;;;4878573;29;20488;-66
2023/08/26 02:31:58;;;;;;;3.20;2.70;;;19.10;99.90;;;;;;4878396;29;20985;-66
2023/08/26 02:34:26;;;;;;;2.50;2.30;;;19.10;99.90;;;;;;4878575;29;20810;-66
2023/08/26 02:36:53;;;;;;;3.20;2.73;;;19.10;99.90;;;;;;4878660;29;20516;-66
2023/08/26 02:39:19;;;;;;;2.30;2.10;;;19.00;99.90;;;;;;4877540;29;20509;-66
2023/08/26 02:41:46;;;;;;;2.30;2.10;;;19.00;99.90;;;;;;4878394;29;20467;-66
2023/08/26 02:44:13;;;;;;;2.30;2.00;;;19.00;99.90;;;;;;4878186;29;20473;-66
2023/08/26 02:46:39;;;;;;;2.90;2.70;;;19.00;99.90;;;;;;4878573;29;20471;-66
2023/08/26 02:49:06;;;;;;;2.40;2.20;;;19.00;99.90;;;;;;4877760;29;20492;-66
2023/08/26 02:51:34;;;;;;;2.20;1.97;;;19.00;99.90;;;;;;4878229;29;20807;-66
2023/08/26 02:54:01;;;;;;;4.90;2.37;;;19.00;99.90;;;;;;4878095;29;20466;-66
2023/08/26 02:56:27;;;;;;;4.30;2.93;;;19.00;99.90;;;;;;4878163;29;20478;-66
2023/08/26 02:58:54;;;;;;;2.77;2.23;;;18.90;99.90;;;;;;4877971;29;20482;-66
2023/08/26 03:01:21;;;;;;;2.73;2.00;;;18.90;99.90;;;;;;4878372;29;20843;-66
2023/08/26 03:03:47;;;;;;;2.57;2.37;;;18.90;99.90;;;;;;4878682;29;20467;-66
2023/08/26 03:06:14;;;;;;;2.33;2.13;;;18.90;99.90;;;;;;5027328;23;20513;-66
2023/08/26 03:08:42;;;;;;;2.67;2.40;;;18.90;99.90;;;;;;4896359;29;20497;-66
2023/08/26 03:11:11;;;;;;;2.27;2.07;;;18.90;99.90;;;;;;4895888;29;20494;-66
2023/08/26 03:13:38;;;;;;;2.27;2.07;;;18.90;99.90;;;;;;4896537;29;20480;-66
2023/08/26 03:16:09;;;;;;;3.03;2.10;;;18.90;99.90;;;;;;4896536;29;20495;-65
2023/08/26 03:18:36;;;;;;;2.30;2.10;;;18.90;99.90;;;;;;4881463;29;20483;-66
2023/08/26 03:21:03;;;;;;;3.23;2.70;;;18.80;99.90;;;;;;4895641;29;20464;-65
2023/08/26 03:23:30;;;;;;;3.10;2.33;;;18.80;99.90;;;;;;4896298;29;20814;-66
2023/08/26 03:25:58;;;;;;;2.30;2.10;;;18.80;99.90;;;;;;4896264;29;20465;-66
2023/08/26 03:28:25;;;;;;;3.27;2.80;;;18.80;99.90;;;;;;4895984;29;20865;-66
2023/08/26 03:30:52;;;;;;;3.37;2.97;;;18.80;99.90;;;;;;4895804;29;20493;-65
2023/08/26 03:33:19;;;;;;;3.30;2.40;;;18.80;99.90;;;;;;4895864;29;20473;-65
2023/08/26 03:35:46;;;;;;;2.83;2.60;;;18.80;99.90;;;;;;4894921;29;20461;-66
2023/08/26 03:38:12;;;;;;;3.97;2.63;;;18.80;99.90;;;;;;4895519;29;20473;-66
2023/08/26 03:40:40;;;;;;;3.50;2.70;;;18.80;99.90;;;;;;4895422;29;20513;-66
2023/08/26 03:43:08;;;;;;;2.53;2.13;;;18.80;99.90;;;;;;4895802;29;20465;-66
2023/08/26 03:45:35;;;;;;;2.47;2.20;;;18.70;99.90;;;;;;4895389;29;20498;-66
2023/08/26 03:48:02;;;;;;;2.80;2.13;;;18.70;99.90;;;;;;4895404;29;20470;-66
2023/08/26 03:50:29;;;;;;;6.70;2.10;;;18.60;99.90;;;;;;4895049;29;20506;-65
2023/08/26 03:52:55;;;;;;;2.80;2.30;;;18.60;99.90;;;;;;4895462;29;20475;-66
2023/08/26 03:55:22;;;;;;;3.43;2.60;;;18.60;99.90;;;;;;4895439;29;20472;-65
2023/08/26 03:57:49;;;;;;;2.37;2.10;;;18.50;99.90;;;;;;4895219;29;20477;-66
2023/08/26 04:00:17;;;;;;;2.53;2.33;;;18.50;99.90;;;;;;4895374;29;20482;-66
2023/08/26 04:02:45;;;;;;;2.97;2.73;;;18.50;99.90;;;;;;4895077;29;20515;-65
2023/08/26 04:05:13;;;;;;;2.97;2.77;;;18.50;99.90;;;;;;4895178;29;20503;-66
2023/08/26 04:07:40;;;;;;;3.83;3.13;;;18.50;99.90;;;;;;4895173;29;20472;-66
2023/08/26 04:10:08;;;;;;;3.17;2.87;;;18.40;99.90;;;;;;4895094;29;20490;-65
2023/08/26 04:12:34;;;;;;;3.50;2.47;;;18.40;99.90;;;;;;4894704;29;20468;-65
2023/08/26 04:15:01;;;;;;;3.20;2.87;;;18.40;99.90;;;;;;4894927;29;20465;-66
2023/08/26 04:17:29;;;;;;;3.27;2.97;;;18.40;99.90;;;;;;4894946;29;21147;-66
2023/08/26 04:19:56;;;;;;;2.90;2.70;;;18.40;99.90;;;;;;4894874;29;20996;-66
2023/08/26 04:22:22;;;;;;;3.20;2.77;;;18.40;99.90;;;;;;4894450;29;20554;-65
2023/08/26 04:24:49;;;;;;;4.33;3.07;;;18.40;99.90;;;;;;4894849;29;20481;-66
2023/08/26 04:27:16;;;;;;;3.53;3.23;;;18.40;99.90;;;;;;4962549;23;20503;-66
2023/08/26 04:29:43;;;;;;;3.07;2.77;;;18.40;99.90;;;;;;4893837;29;20849;-66
2023/08/26 04:32:09;;;;;;;3.50;3.17;;;18.40;99.90;;;;;;4894323;29;20857;-66
2023/08/26 04:34:37;;;;;;;3.73;2.50;;;18.30;99.90;;;;;;4894527;29;20473;-66
2023/08/26 04:37:05;;;;;;;4.00;2.83;;;18.30;99.90;;;;;;4894831;29;20468;-66
2023/08/26 04:39:31;;;;;;;3.07;2.73;;;18.30;99.90;;;;;;4894123;29;20485;-65
2023/08/26 04:41:58;;;;;;;3.47;3.17;;;18.30;99.90;;;;;;4894239;29;20460;-66
2023/08/26 04:44:25;;;;;;;3.90;2.73;;;18.30;99.90;;;;;;4894369;29;20947;-66
2023/08/26 04:46:53;;;;;;;4.43;2.97;;;18.30;99.90;;;;;;4894248;29;20463;-66
2023/08/26 04:49:20;;;;;;;3.60;3.13;;;18.30;99.90;;;;;;4893945;29;20603;-65
2023/08/26 04:51:53;;;;;;;3.13;2.83;;;18.20;99.90;;;;;;4894837;29;20471;-66
2023/08/26 04:54:19;;;;;;;5.33;3.43;;;18.20;99.90;;;;;;4894619;29;20466;-66
2023/08/26 04:56:47;;;;;;;3.93;2.70;;;18.20;99.90;;;;;;4895180;29;20838;-65
2023/08/26 04:59:13;;;;;;;3.80;3.30;;;18.20;99.90;;;;;;4894750;29;20475;-66
2023/08/26 05:01:40;;;;;;;3.20;2.90;;;18.10;99.90;;;;;;4894567;29;20999;-66
2023/08/26 05:04:07;;;;;;;2.63;2.43;;;18.10;99.90;;;;;;4894920;29;20476;-66
2023/08/26 05:06:34;;;;;;;3.40;3.10;;;18.20;99.90;;;;;;4894112;29;20467;-65
2023/08/26 05:09:03;;;;;;;3.80;3.10;;;18.10;99.90;;;;;;4894554;29;20506;-66
2023/08/26 05:11:30;;;;;;;6.43;3.37;;;18.20;99.90;;;;;;4894399;29;20594;-66
2023/08/26 05:13:57;;;;;;;3.60;3.17;;;18.20;99.90;;;;;;4894962;29;20470;-65
2023/08/26 05:16:24;;;;;;;6.17;3.20;;;18.20;99.90;;;;;;4894491;29;20467;-66
2023/08/26 05:18:50;;;;;;;5.00;3.40;;;18.20;99.90;;;;;;4894484;29;20874;-66
2023/08/26 05:21:19;;;;;;;3.43;2.83;;;18.20;99.90;;;;;;4894631;29;20473;-66
2023/08/26 05:23:46;;;;;;;3.20;2.90;;;18.20;99.90;;;;;;4894523;29;20464;-66
2023/08/26 05:26:14;;;;;;;4.17;3.00;;;18.20;99.90;;;;;;4894406;29;20470;-66
2023/08/26 05:28:40;;;;;;;4.30;2.50;;;18.20;99.90;;;;;;4889837;29;20497;-66
2023/08/26 05:31:07;;;;;;;3.77;3.23;;;18.20;99.90;;;;;;4890896;29;21003;-66
2023/08/26 05:33:34;;;;;;;4.60;3.20;;;18.20;99.90;;;;;;4892079;29;20472;-65
2023/08/26 05:36:00;;;;;;;3.27;2.97;;;18.20;99.90;;;;;;4893444;29;20967;-66
2023/08/26 05:38:27;;;;;;;3.60;3.13;;;18.20;99.90;;;;;;4894129;29;20488;-66
2023/08/26 05:40:54;;;;;;;3.97;3.57;;;18.20;99.90;;;;;;4894443;29;20468;-66
2023/08/26 05:43:22;;;;;;;4.23;3.00;;;18.30;99.90;;;;;;4894373;29;20460;-66
2023/08/26 05:45:49;;;;;;;3.50;3.13;;;18.30;99.90;;;;;;4894671;29;20466;-66
2023/08/26 05:48:15;;;;;;;3.30;3.00;;;18.30;99.90;;;;;;4894431;29;20463;-66
2023/08/26 05:50:42;;;;;;;6.03;2.90;;;18.30;99.90;;;;;;4893813;29;20495;-66
2023/08/26 05:53:09;;;;;;;3.47;3.17;;;18.30;99.90;;;;;;4894344;29;20470;-66
2023/08/26 05:55:35;;;;;;;3.83;3.30;;;18.30;99.90;;;;;;4894126;29;20840;-66
2023/08/26 05:58:02;;;;;;;3.03;2.83;;;18.30;99.90;;;;;;4895270;29;20465;-66
2023/08/26 06:00:30;;;;;;;4.30;3.90;;;18.40;99.90;;;;;;4897132;29;20476;-66
2023/08/26 06:02:57;;;;;;;3.40;3.10;;;18.40;99.90;;;;;;4897794;29;20974;-66
2023/08/26 06:05:23;;;;;;;2.87;2.63;;;18.40;99.90;;;;;;4897715;29;20468;-66
2023/08/26 06:07:51;;;;;;;3.73;3.33;;;18.50;99.90;;;;;;4881235;29;20823;-66
2023/08/26 06:10:18;;;;;;;3.47;3.17;;;18.50;99.90;;;;;;4893146;29;20573;-66
2023/08/26 06:12:45;;;;;;;3.40;2.97;;;18.60;99.90;;;;;;4897442;29;20924;-66
2023/08/26 06:15:12;;;;;;;3.73;3.43;;;18.60;99.90;;;;;;4897530;29;20472;-65
2023/08/26 06:17:41;;;;;;;4.47;2.90;;;18.70;99.90;;;;;;4896472;29;20468;-66
2023/08/26 06:20:09;;;;;;;5.17;3.73;;;18.70;99.90;;;;;;4895942;29;20492;-65
2023/08/26 06:22:35;;;;;;;3.63;3.23;;;18.80;99.90;;;;;;4896409;29;20529;-65
2023/08/26 06:25:02;;;;;;;4.83;3.23;;;18.80;99.90;;;;;;4897267;29;20964;-65
2023/08/26 06:27:29;;;;;;;3.60;3.03;;;18.90;99.90;;;;;;4895038;29;20476;-66
2023/08/26 06:29:58;;;;;;;3.80;2.90;;;18.90;99.90;;;;;;4897149;29;20503;-65
2023/08/26 06:32:25;;;;;;;3.10;2.80;;;19.00;99.90;;;;;;4897065;29;20580;-66
2023/08/26 06:34:53;;;;;;;3.70;3.37;;;19.00;99.90;;;;;;4897051;29;20462;-65
2023/08/26 06:37:20;;;;;;;4.03;2.80;;;19.10;99.90;;;;;;4896887;29;20464;-65
2023/08/26 06:39:47;;;;;;;3.43;3.10;;;19.10;99.90;;;;;;4896912;29;20489;-66
2023/08/26 06:42:13;;;;;;;5.90;3.13;;;19.20;99.90;;;;;;4896674;29;20503;-66
2023/08/26 06:44:40;;;;;;;3.27;2.97;;;19.30;99.90;;;;;;4896911;29;20864;-65
2023/08/26 06:47:07;;;;;;;6.10;2.80;;;19.30;99.90;;;;;;4896881;29;20465;-65
2023/08/26 06:49:34;;;;;;;3.20;2.80;;;19.30;99.90;;;;;;4896653;29;20867;-66
2023/08/26 06:52:02;;;;;;;3.07;2.77;;;19.30;99.90;;;;;;4896527;29;20534;-65
2023/08/26 06:54:28;;;;;;;3.37;2.77;;;19.40;99.90;;;;;;4896724;29;20967;-65
2023/08/26 06:56:55;;;;;;;3.50;2.87;;;19.50;99.90;;;;;;4881629;29;20958;-66
2023/08/26 06:59:22;;;;;;;3.13;2.83;;;19.50;99.90;;;;;;4896552;29;20497;-66
2023/08/26 07:01:48;;;;;;;4.17;2.80;;;19.50;99.90;;;;;;4896202;29;20458;-66
2023/08/26 07:04:15;;;;;;;2.93;2.73;;;19.50;99.90;;;;;;4896415;29;20461;-65
2023/08/26 07:06:42;;;;;;;3.10;2.87;;;19.50;99.90;;;;;;4891551;29;20476;-66
2023/08/26 07:09:10;;;;;;;3.70;2.90;;;19.50;99.90;;;;;;4896143;29;20493;-66
2023/08/26 07:11:37;;;;;;;3.40;3.10;;;19.50;99.90;;;;;;4896146;29;20484;-66
2023/08/26 07:14:04;;;;;;;4.73;3.10;;;19.50;99.90;;;;;;4896573;29;20465;-65
2023/08/26 07:16:30;;;;;;;3.20;2.87;;;19.40;99.90;;;;;;4896559;29;20839;-65
2023/08/26 07:18:57;;;;;;;4.03;3.23;;;19.40;99.90;;;;;;4896464;29;20478;-65
2023/08/26 07:21:24;;;;;;;3.03;2.80;;;19.40;99.90;;;;;;4896163;29;20462;-65
2023/08/26 07:23:50;;;;;;;3.30;2.93;;;19.50;99.90;;;;;;4896301;29;20477;-66
2023/08/26 07:26:18;;;;;;;3.97;3.00;;;19.50;99.90;;;;;;4896316;29;20465;-65
2023/08/26 07:28:48;;;;;;;2.80;2.60;;;19.50;99.90;;;;;;4896462;29;20489;-66
2023/08/26 07:31:14;;;;;;;4.73;3.47;;;19.60;99.90;;;;;;4895048;29;20528;-65
2023/08/26 07:33:41;;;;;;;3.50;3.20;;;19.60;99.90;;;;;;4895378;29;21010;-66
2023/08/26 07:36:10;;;;;;;4.30;2.90;;;19.70;99.90;;;;;;4895646;29;20469;-65
2023/08/26 07:38:37;;;;;;;5.20;2.93;;;19.80;99.90;;;;;;4895772;29;20486;-65
2023/08/26 07:41:03;;;;;;;3.37;3.07;;;19.80;99.90;;;;;;4895845;29;20468;-66
2023/08/26 07:43:33;;;;;;;3.83;3.10;;;19.80;99.90;;;;;;4896056;29;20964;-66
2023/08/26 07:46:00;;;;;;;4.10;3.03;;;19.90;99.90;;;;;;4896073;29;20565;-65
2023/08/26 07:48:27;;;;;;;8.03;3.57;;;20.00;99.90;;;;;;4895632;29;20481;-65
2023/08/26 07:50:53;;;;;;;4.40;2.87;;;20.10;99.90;;;;;;4895407;29;20497;-64
2023/08/26 07:53:20;;;;;;;3.83;3.53;;;20.10;99.90;;;;;;4895680;29;20492;-65
2023/08/26 07:55:47;;;;;;;3.23;2.93;;;20.10;99.90;;;;;;4895824;29;20466;-65
2023/08/26 07:58:13;;;;;;;4.70;4.10;;;20.00;99.90;;;;;;4895487;29;21164;-65
2023/08/26 08:00:42;;;;;;;3.57;3.23;;;20.10;99.90;;;;;;4895481;29;20465;-65
2023/08/26 08:03:08;;;;;;;4.53;3.03;;;20.10;99.90;;;;;;4895648;29;20494;-65
2023/08/26 08:05:35;;;;;;;4.10;3.43;;;20.30;99.90;;;;;;4895815;29;20465;-65
2023/08/26 08:08:02;;;;;;;3.30;2.77;;;20.50;99.90;;;;;;4895340;29;20462;-65
2023/08/26 08:10:29;;;;;;;3.80;3.27;;;20.60;99.90;;;;;;4895675;29;20490;-65
2023/08/26 08:12:55;;;;;;;3.50;2.90;;;20.60;99.90;;;;;;4895649;29;20467;-65
2023/08/26 08:15:22;;;;;;;3.30;3.00;;;20.60;99.90;;;;;;4895541;29;20468;-65
2023/08/26 08:17:50;;;;;;;3.30;3.00;;;20.60;99.90;;;;;;4895573;29;20958;-64
2023/08/26 08:20:19;;;;;;;3.40;2.80;;;20.50;99.90;;;;;;4894836;29;21040;-65
2023/08/26 08:22:46;;;;;;;3.33;2.93;;;20.40;99.90;;;;;;4895245;29;20966;-65
2023/08/26 08:25:12;;;;;;;3.90;3.00;;;20.50;99.90;;;;;;4895423;29;20470;-64
2023/08/26 08:27:40;;;;;;;3.03;2.73;;;20.50;99.90;;;;;;4895190;29;20470;-65
2023/08/26 08:30:08;;;;;;;3.77;3.03;;;20.50;99.90;;;;;;4886518;29;21040;-65
2023/08/26 08:32:35;;;;;;;3.57;3.23;;;20.50;99.90;;;;;;4891069;29;20906;-65
2023/08/26 08:35:04;;;;;;;3.20;2.87;;;20.60;99.90;;;;;;4894543;29;20465;-64
2023/08/26 08:37:31;;;;;;;3.30;3.00;;;20.70;99.90;;;;;;4894530;29;20976;-64
2023/08/26 08:39:58;;;;;;;3.90;3.00;;;20.70;99.90;;;;;;4894655;29;20484;-64
2023/08/26 08:42:26;;;;;;;3.60;3.10;;;20.80;99.90;;;;;;4895009;29;20473;-65
2023/08/26 08:44:53;;;;;;;3.90;3.17;;;20.80;99.90;;;;;;4894641;29;20562;-64
2023/08/26 08:47:20;;;;;;;3.80;3.03;;;20.90;99.90;;;;;;4894384;29;20471;-66
2023/08/26 08:49:48;;;;;;;3.30;3.00;;;20.80;99.90;;;;;;4894206;29;20513;-64
2023/08/26 08:52:18;;;;;;;4.77;2.97;;;20.80;99.90;;;;;;4894161;29;20478;-65
2023/08/26 08:54:45;;;;;;;3.80;3.00;;;20.70;99.90;;;;;;4894393;29;20474;-64
2023/08/26 08:57:15;;;;;;;4.73;3.37;;;20.70;99.90;;;;;;4894591;29;20470;-64
2023/08/26 08:59:42;;;;;;;2.97;2.77;;;20.60;99.90;;;;;;4894135;29;20501;-63
2023/08/26 09:02:10;;;;;;;3.03;2.73;;;20.50;99.90;;;;;;4894156;29;21037;-63
2023/08/26 09:04:37;;;;;;;3.33;3.03;;;20.40;99.90;;;;;;4894476;29;20482;-64
2023/08/26 09:07:07;;;;;;;3.27;2.97;;;20.40;99.90;;;;;;4894093;29;20478;-64
2023/08/26 09:09:35;;;;;;;2.97;2.77;;;20.40;99.90;;;;;;4894187;29;20491;-64
2023/08/26 09:12:02;;;;;;;4.93;2.67;;;20.40;99.90;;;;;;4893830;29;20490;-64
2023/08/26 09:14:29;;;;;;;3.43;2.90;;;20.40;99.90;;;;;;4894372;29;20470;-64
2023/08/26 09:16:56;;;;;;;2.47;2.27;;;20.40;99.90;;;;;;4894284;29;20474;-64
2023/08/26 09:19:23;;;;;;;2.93;2.63;;;20.40;99.90;;;;;;4893844;29;20510;-63
2023/08/26 09:21:50;;;;;;;3.63;2.97;;;20.40;99.90;;;;;;4893485;29;20478;-64
2023/08/26 09:24:18;;;;;;;3.20;2.90;;;20.40;99.90;;;;;;4894310;29;20891;-63
2023/08/26 09:26:59;;;;;;;3.30;2.90;;;20.40;99.90;;;;;;4894284;29;20474;-63
2023/08/26 09:29:26;;;;;;;3.53;2.80;;;20.40;99.90;;;;;;4893974;29;20546;-63
2023/08/26 09:31:53;;;;;;;3.63;3.03;;;20.50;99.90;;;;;;4893451;29;20486;-64
2023/08/26 09:34:24;;;;;;;3.20;2.80;;;20.40;99.90;;;;;;4897051;29;20474;-63
2023/08/26 09:36:50;;;;;;;3.20;2.90;;;20.40;99.90;;;;;;4897849;29;20542;-64
2023/08/26 09:39:17;;;;;;;3.20;2.90;;;20.50;99.90;;;;;;4897458;29;20492;-64
2023/08/26 09:41:47;;;;;;;5.53;3.00;;;20.50;99.90;;;;;;4897278;29;20463;-64
2023/08/26 09:44:17;;;;;;;3.73;3.17;;;20.50;99.90;;;;;;4897539;29;20467;-63
2023/08/26 09:46:44;;;;;;;2.90;2.70;;;20.50;99.90;;;;;;4897449;29;20463;-64
2023/08/26 09:49:13;;;;;;;3.30;3.00;;;20.50;99.90;;;;;;4897124;29;20861;-64
2023/08/26 09:51:46;;;;;;;4.13;2.77;;;20.50;99.90;;;;;;4896931;29;20864;-66
2023/08/26 09:54:14;;;;;;;3.90;3.00;;;20.50;99.90;;;;;;4897297;29;20474;-63
2023/08/26 09:56:41;;;;;;;3.13;2.83;;;20.50;99.90;;;;;;4897526;29;20478;-63
2023/08/26 09:59:09;;;;;;;3.60;3.00;;;20.50;99.90;;;;;;4897071;29;20859;-64
2023/08/26 10:01:38;;;;;;;4.00;3.30;;;20.60;99.90;;;;;;4889069;29;20527;-64
2023/08/26 10:04:08;;;;;;;3.63;2.87;;;20.80;99.90;;;;;;4867745;29;20475;-64
2023/08/26 10:06:40;;;;;;;3.90;3.00;;;20.90;99.90;;;;;;4874479;29;20528;-64
2023/08/26 10:09:17;;;;;;;3.63;2.70;;;20.90;99.90;;;;;;4871746;29;20559;-64
2023/08/26 10:11:47;;;;;;;4.70;3.20;;;20.90;99.90;;;;;;5005144;23;20513;-66
2023/08/26 10:14:18;;;;;;;4.50;3.17;;;20.80;99.90;;;;;;4888285;29;20475;-66
2023/08/26 10:16:46;;;;;;;3.53;2.87;;;20.80;99.90;;;;;;4896166;29;20497;-66
2023/08/26 10:19:15;;;;;;;4.17;2.97;;;20.60;99.90;;;;;;4878878;29;21031;-66
2023/08/26 10:21:42;;;;;;;5.50;3.13;;;20.50;99.90;;;;;;4874678;29;20934;-65
2023/08/26 10:24:09;;;;;;;4.57;4.17;;;20.40;99.90;;;;;;4883560;29;20473;-65
2023/08/26 10:26:37;;;;;;;3.33;3.03;;;20.30;99.90;;;;;;4876018;29;20471;-65
2023/08/26 10:29:04;;;;;;;5.10;3.40;;;20.30;99.90;;;;;;4928273;23;20486;-93
2023/08/26 10:31:39;;;;;;;4.67;3.27;;;20.20;99.90;;;;;;4913373;29;21102;-93
2023/08/26 10:34:14;;;;;;;4.37;3.33;;;20.10;99.90;;;;;;4910167;29;20547;-93
2023/08/26 10:36:49;;;;;;;3.87;3.47;;;20.10;99.90;;;;;;4911599;29;20474;-94
2023/08/26 10:39:18;;;;;;;4.07;3.70;;;20.00;99.90;;;;;;4898159;29;20482;-93
2023/08/26 10:42:20;;;;;;;4.53;3.50;;;20.00;99.90;;;;;;4893405;29;20544;-95
2023/08/26 10:45:35;;;;;;;7.10;3.93;;;19.90;99.90;;;;;;4903457;29;20502;-92
2023/08/26 10:48:08;;;;;;;3.60;3.17;;;19.80;99.90;;;;;;4896393;29;20562;-93
2023/08/26 10:50:40;;;;;;;3.70;3.40;;;19.80;99.90;;;;;;4887729;29;20572;-94
2023/08/26 10:53:15;;;;;;;4.13;3.80;;;19.70;99.90;;;;;;4891189;29;20991;-93
2023/08/26 10:55:47;;;;;;;4.30;3.57;;;19.70;99.90;;;;;;4892202;29;20483;-93
2023/08/26 11:00:54;;;;;;;3.50;3.20;;;19.70;99.90;;;;;;4856722;29;20494;-67
2023/08/26 11:03:23;;;;;;;4.40;4.00;;;19.70;99.90;;;;;;4858193;29;20472;-67
2023/08/26 11:06:02;;;;;;;3.67;3.27;;;19.70;99.90;;;;;;4858879;29;20480;-67
2023/08/26 11:08:29;;;;;;;6.87;4.07;;;19.70;99.90;;;;;;4856651;29;21042;-67
2023/08/26 11:10:55;;;;;;;4.60;3.70;;;19.80;99.90;;;;;;4858100;29;20486;-67
2023/08/26 11:13:23;;;;;;;6.13;5.17;;;19.90;99.90;;;;;;4860439;29;20856;-67
2023/08/26 11:15:51;;;;;;;5.43;3.90;;;20.00;99.90;;;;;;4858464;29;20476;-67
2023/08/26 11:18:18;;;;;;;5.07;3.70;;;20.10;99.90;;;;;;4857219;29;20478;-67
2023/08/26 11:20:46;;;;;;;3.43;3.13;;;20.20;99.90;;;;;;4858156;29;20500;-67
2023/08/26 11:23:13;;;;;;;4.07;3.50;;;20.30;99.90;;;;;;4857597;29;20472;-67
2023/08/26 11:25:40;;;;;;;3.97;3.43;;;20.40;99.90;;;;;;4853681;29;20484;-67
2023/08/26 11:28:10;;;;;;;4.40;3.47;;;20.40;99.90;;;;;;4855729;29;20483;-67
2023/08/26 11:30:38;;;;;;;4.20;3.13;;;20.40;99.90;;;;;;4856862;29;20480;-67
2023/08/26 11:33:10;;;;;;;4.30;3.20;;;20.30;99.90;;;;;;4855945;29;20503;-67
2023/08/26 11:35:38;;;;;;;4.10;3.63;;;20.30;99.90;;;;;;4857049;29;20511;-67
2023/08/26 11:38:07;;;;;;;3.37;3.07;;;20.20;99.90;;;;;;4853748;29;20480;-67
2023/08/26 11:40:34;;;;;;;6.27;4.17;;;20.20;99.90;;;;;;4855458;29;20480;-67
2023/08/26 11:43:06;;;;;;;4.97;3.73;;;20.10;99.90;;;;;;4852848;29;20502;-67
2023/08/26 11:45:33;;;;;;;7.20;3.00;;;20.10;99.90;;;;;;4856939;29;20563;-67
2023/08/26 11:48:00;;;;;;;4.40;3.60;;;20.00;99.90;;;;;;4857024;29;20478;-68
2023/08/26 11:50:27;;;;;;;4.80;3.70;;;20.00;99.90;;;;;;4857337;29;20490;-67
2023/08/26 11:52:56;;;;;;;4.00;3.40;;;20.00;99.90;;;;;;4857863;29;20495;-68
2023/08/26 11:55:28;;;;;;;3.97;3.53;;;19.90;99.90;;;;;;4856188;29;20699;-67
2023/08/26 11:57:55;;;;;;;4.17;3.33;;;19.90;99.90;;;;;;4854758;29;21101;-67
2023/08/26 12:00:23;;;;;;;4.13;3.33;;;20.00;99.90;;;;;;4855753;29;20500;-67
2023/08/26 12:02:51;;;;;;;5.57;3.23;;;19.90;99.90;;;;;;4856323;29;20483;-67
2023/08/26 12:05:19;;;;;;;7.00;3.47;;;19.90;99.90;;;;;;4856037;29;20487;-67
2023/08/26 12:07:46;;;;;;;4.73;3.77;;;19.90;99.90;;;;;;4855849;29;20519;-67
2023/08/26 12:10:14;;;;;;;4.43;3.73;;;19.80;99.90;;;;;;4855623;29;20495;-67
2023/08/26 12:12:42;;;;;;;3.67;3.37;;;19.80;99.90;;;;;;4856350;29;20527;-67
2023/08/26 12:15:11;;;;;;;3.57;3.27;;;19.80;99.90;;;;;;4856130;29;20477;-67
2023/08/26 12:17:46;;;;;;;4.63;4.20;;;19.80;99.90;;;;;;4855975;29;20483;-67
2023/08/26 12:20:20;;;;;;;4.23;3.90;;;19.80;99.90;;;;;;4856132;29;20906;-67
2023/08/26 12:22:48;;;;;;;4.40;4.00;;;19.70;99.90;;;;;;4857173;29;20557;-67
2023/08/26 12:25:17;;;;;;;3.97;3.63;;;19.70;99.90;;;;;;4856134;29;20535;-67
2023/08/26 12:27:46;;;;;;;7.53;4.00;;;19.70;99.90;;;;;;4856448;29;20538;-67
2023/08/26 12:30:13;;;;;;;4.43;4.03;;;19.60;99.90;;;;;;4856034;29;20488;-67
2023/08/26 12:32:40;;;;;;;8.17;3.83;;;19.50;99.90;;;;;;4856727;29;20917;-67
2023/08/26 12:35:08;;;;;;;4.13;3.70;;;19.50;99.90;;;;;;4856554;29;20479;-67
2023/08/26 12:37:35;;;;;;;5.17;4.23;;;19.40;99.90;;;;;;4856840;29;20483;-67
2023/08/26 12:40:04;;;;;;;4.40;3.80;;;19.40;99.90;;;;;;4853825;29;20576;-67
2023/08/26 12:42:32;;;;;;;5.37;4.53;;;19.30;99.90;;;;;;4840074;29;20562;-67
2023/08/26 12:45:00;;;;;;;5.03;3.93;;;19.30;99.90;;;;;;4856326;29;20471;-67
2023/08/26 12:47:27;;;;;;;4.80;4.40;;;19.30;99.90;;;;;;4855526;29;20476;-67
2023/08/26 12:49:55;;;;;;;4.80;4.40;;;19.20;99.90;;;;;;4851371;29;20577;-66
2023/08/26 12:52:22;;;;;;;4.33;4.00;;;19.20;99.90;;;;;;4854651;29;20492;-66
2023/08/26 12:54:49;;;;;;;4.67;4.27;;;19.20;99.90;;;;;;4850343;29;20475;-67